sensor_id;sensor_type;location;lat;lon;timestamp;temperature;humidity
27619;DHT22;15039;50.830;4.730;2022-12-10T00:00:35;0.90;99.90
27619;DHT22;15039;50.830;4.730;2022-12-10T00:03:01;0.90;99.90
27619;DHT22;15039;50.830;4.730;2022-12-10T00:05:27;0.80;99.90
27619;DHT22;15039;50.830;4.730;2022-12-10T00:07:52;0.70;99.90
27619;DHT22;15039;50.830;4.730;2022-12-10T00:10:18;0.50;99.90
27619;DHT22;15039;50.830;4.730;2022-12-10T00:12:44;0.50;99.90
27619;DHT22;15039;50.830;4.730;2022-12-10T00:15:09;0.40;99.90
27619;DHT22;15039;50.830;4.730;2022-12-10T00:17:36;0.40;99.90
27619;DHT22;15039;50.830;4.730;2022-12-10T00:20:01;0.40;99.90
27619;DHT22;15039;50.830;4.730;2022-12-10T00:22:27;0.40;99.90
27619;DHT22;15039;50.830;4.730;2022-12-10T00:24:52;0.20;99.90
27619;DHT22;15039;50.830;4.730;2022-12-10T00:27:18;0.20;99.90
27619;DHT22;15039;50.830;4.730;2022-12-10T00:29:44;0.10;99.90
27619;DHT22;15039;50.830;4.730;2022-12-10T00:32:09;0.20;99.90
27619;DHT22;15039;50.830;4.730;2022-12-10T00:34:35;0.40;99.90
27619;DHT22;15039;50.830;4.730;2022-12-10T00:37:00;0.30;99.90
27619;DHT22;15039;50.830;4.730;2022-12-10T00:39:26;0.20;99.90
27619;DHT22;15039;50.830;4.730;2022-12-10T00:41:52;0.30;99.90
27619;DHT22;15039;50.830;4.730;2022-12-10T00:44:18;0.20;99.90
27619;DHT22;15039;50.830;4.730;2022-12-10T00:46:43;0.30;99.90
27619;DHT22;15039;50.830;4.730;2022-12-10T00:49:10;0.30;99.90
27619;DHT22;15039;50.830;4.730;2022-12-10T00:51:36;0.20;99.90
27619;DHT22;15039;50.830;4.730;2022-12-10T00:54:01;0.30;99.90
27619;DHT22;15039;50.830;4.730;2022-12-10T00:56:30;0.20;99.90
27619;DHT22;15039;50.830;4.730;2022-12-10T00:58:58;0.10;99.90
27619;DHT22;15039;50.830;4.730;2022-12-10T01:01:26;0.20;99.90
27619;DHT22;15039;50.830;4.730;2022-12-10T01:04:00;0.30;99.90
27619;DHT22;15039;50.830;4.730;2022-12-10T01:06:29;0.40;99.90
27619;DHT22;15039;50.830;4.730;2022-12-10T01:08:57;0.50;99.90
27619;DHT22;15039;50.830;4.730;2022-12-10T01:11:26;0.50;99.90
27619;DHT22;15039;50.830;4.730;2022-12-10T01:13:53;0.40;99.90
27619;DHT22;15039;50.830;4.730;2022-12-10T01:16:22;0.30;99.90
27619;DHT22;15039;50.830;4.730;2022-12-10T01:18:48;0.40;99.90
27619;DHT22;15039;50.830;4.730;2022-12-10T01:21:17;0.50;99.90
27619;DHT22;15039;50.830;4.730;2022-12-10T01:23:45;0.40;99.90
27619;DHT22;15039;50.830;4.730;2022-12-10T01:26:16;0.20;99.90
27619;DHT22;15039;50.830;4.730;2022-12-10T01:28:43;0.10;99.90
27619;DHT22;15039;50.830;4.730;2022-12-10T01:31:23;0.00;99.90
27619;DHT22;15039;50.830;4.730;2022-12-10T01:33:50;0.00;99.90
27619;DHT22;15039;50.830;4.730;2022-12-10T01:36:19;0.00;99.90
27619;DHT22;15039;50.830;4.730;2022-12-10T01:38:45;0.20;99.90
27619;DHT22;15039;50.830;4.730;2022-12-10T01:41:21;0.20;99.90
27619;DHT22;15039;50.830;4.730;2022-12-10T01:44:03;0.20;99.90
27619;DHT22;15039;50.830;4.730;2022-12-10T01:46:35;0.30;99.90
27619;DHT22;15039;50.830;4.730;2022-12-10T01:49:03;0.20;99.90
27619;DHT22;15039;50.830;4.730;2022-12-10T01:51:33;0.20;99.90
27619;DHT22;15039;50.830;4.730;2022-12-10T01:54:00;0.20;99.90
27619;DHT22;15039;50.830;4.730;2022-12-10T01:56:26;0.40;99.90
27619;DHT22;15039;50.830;4.730;2022-12-10T01:58:55;0.50;99.90
27619;DHT22;15039;50.830;4.730;2022-12-10T02:18:28;0.60;99.90
27619;DHT22;15039;50.830;4.730;2022-12-10T02:21:00;0.70;99.90
27619;DHT22;15039;50.830;4.730;2022-12-10T02:23:32;0.60;99.90
27619;DHT22;15039;50.830;4.730;2022-12-10T02:26:26;0.60;99.90
27619;DHT22;15039;50.830;4.730;2022-12-10T02:29:19;0.60;99.90
27619;DHT22;15039;50.830;4.730;2022-12-10T02:31:48;0.60;99.90
27619;DHT22;15039;50.830;4.730;2022-12-10T02:34:18;0.70;99.90
27619;DHT22;15039;50.830;4.730;2022-12-10T02:36:46;0.70;99.90
27619;DHT22;15039;50.830;4.730;2022-12-10T02:39:15;0.70;99.90
27619;DHT22;15039;50.830;4.730;2022-12-10T02:41:45;0.60;99.90
27619;DHT22;15039;50.830;4.730;2022-12-10T02:44:13;0.60;99.90
27619;DHT22;15039;50.830;4.730;2022-12-10T02:46:42;0.40;99.90
27619;DHT22;15039;50.830;4.730;2022-12-10T02:49:11;0.30;99.90
27619;DHT22;15039;50.830;4.730;2022-12-10T02:51:37;0.30;99.90
27619;DHT22;15039;50.830;4.730;2022-12-10T02:54:05;0.30;99.90
27619;DHT22;15039;50.830;4.730;2022-12-10T02:56:42;0.30;99.90
27619;DHT22;15039;50.830;4.730;2022-12-10T02:59:19;0.30;99.90
27619;DHT22;15039;50.830;4.730;2022-12-10T03:06:59;0.00;99.90
27619;DHT22;15039;50.830;4.730;2022-12-10T03:09:51;0.00;99.90
27619;DHT22;15039;50.830;4.730;2022-12-10T03:12:45;0.10;99.90
27619;DHT22;15039;50.830;4.730;2022-12-10T03:15:14;0.10;99.90
27619;DHT22;15039;50.830;4.730;2022-12-10T03:17:42;-0.10;99.90
27619;DHT22;15039;50.830;4.730;2022-12-10T03:20:12;-0.10;99.90
27619;DHT22;15039;50.830;4.730;2022-12-10T03:22:40;0.00;99.90
27619;DHT22;15039;50.830;4.730;2022-12-10T03:25:07;0.10;99.90
27619;DHT22;15039;50.830;4.730;2022-12-10T03:27:36;0.20;99.90
27619;DHT22;15039;50.830;4.730;2022-12-10T03:30:03;0.10;99.90
27619;DHT22;15039;50.830;4.730;2022-12-10T03:32:29;0.00;99.90
27619;DHT22;15039;50.830;4.730;2022-12-10T03:34:57;0.00;99.90
27619;DHT22;15039;50.830;4.730;2022-12-10T03:37:24;0.20;99.90
27619;DHT22;15039;50.830;4.730;2022-12-10T03:39:51;0.30;99.90
27619;DHT22;15039;50.830;4.730;2022-12-10T03:42:17;0.20;99.90
27619;DHT22;15039;50.830;4.730;2022-12-10T03:44:43;0.30;99.90
27619;DHT22;15039;50.830;4.730;2022-12-10T03:47:12;0.20;99.90
27619;DHT22;15039;50.830;4.730;2022-12-10T03:49:38;0.00;99.90
27619;DHT22;15039;50.830;4.730;2022-12-10T03:52:04;0.10;99.90
27619;DHT22;15039;50.830;4.730;2022-12-10T03:54:29;0.00;99.90
27619;DHT22;15039;50.830;4.730;2022-12-10T03:56:55;0.00;99.90
27619;DHT22;15039;50.830;4.730;2022-12-10T03:59:21;0.10;99.90
27619;DHT22;15039;50.830;4.730;2022-12-10T04:01:46;0.20;99.90
27619;DHT22;15039;50.830;4.730;2022-12-10T04:04:12;0.00;99.90
27619;DHT22;15039;50.830;4.730;2022-12-10T04:06:40;0.10;99.90
27619;DHT22;15039;50.830;4.730;2022-12-10T04:09:09;0.30;99.90
27619;DHT22;15039;50.830;4.730;2022-12-10T04:11:35;0.30;99.90
27619;DHT22;15039;50.830;4.730;2022-12-10T04:14:00;0.10;99.90
27619;DHT22;15039;50.830;4.730;2022-12-10T04:16:44;0.10;99.90
27619;DHT22;15039;50.830;4.730;2022-12-10T04:19:12;0.30;99.90
27619;DHT22;15039;50.830;4.730;2022-12-10T04:21:40;0.30;99.90
27619;DHT22;15039;50.830;4.730;2022-12-10T04:24:26;0.40;99.90
27619;DHT22;15039;50.830;4.730;2022-12-10T04:29:42;0.40;99.90
27619;DHT22;15039;50.830;4.730;2022-12-10T04:32:08;0.40;99.90
27619;DHT22;15039;50.830;4.730;2022-12-10T04:34:33;0.40;99.90
27619;DHT22;15039;50.830;4.730;2022-12-10T04:37:00;0.40;99.90
27619;DHT22;15039;50.830;4.730;2022-12-10T04:39:26;0.40;99.90
27619;DHT22;15039;50.830;4.730;2022-12-10T04:41:52;0.40;99.90
27619;DHT22;15039;50.830;4.730;2022-12-10T04:44:18;0.40;99.90
27619;DHT22;15039;50.830;4.730;2022-12-10T04:46:45;0.40;99.90
27619;DHT22;15039;50.830;4.730;2022-12-10T04:49:11;0.50;99.90
27619;DHT22;15039;50.830;4.730;2022-12-10T04:51:36;0.50;99.90
27619;DHT22;15039;50.830;4.730;2022-12-10T04:54:02;0.70;99.90
27619;DHT22;15039;50.830;4.730;2022-12-10T04:56:28;0.70;99.90
27619;DHT22;15039;50.830;4.730;2022-12-10T04:58:58;0.50;99.90
27619;DHT22;15039;50.830;4.730;2022-12-10T05:01:24;0.60;99.90
27619;DHT22;15039;50.830;4.730;2022-12-10T05:03:50;0.60;99.90
27619;DHT22;15039;50.830;4.730;2022-12-10T05:06:18;0.50;99.90
27619;DHT22;15039;50.830;4.730;2022-12-10T05:08:45;0.40;99.90
27619;DHT22;15039;50.830;4.730;2022-12-10T05:11:16;0.20;99.90
27619;DHT22;15039;50.830;4.730;2022-12-10T05:13:42;0.40;99.90
27619;DHT22;15039;50.830;4.730;2022-12-10T05:16:10;0.30;99.90
27619;DHT22;15039;50.830;4.730;2022-12-10T05:18:37;0.40;99.90
27619;DHT22;15039;50.830;4.730;2022-12-10T05:21:05;0.30;99.90
27619;DHT22;15039;50.830;4.730;2022-12-10T05:23:32;0.40;99.90
27619;DHT22;15039;50.830;4.730;2022-12-10T05:28:25;0.20;99.90
27619;DHT22;15039;50.830;4.730;2022-12-10T05:30:51;0.30;99.90
27619;DHT22;15039;50.830;4.730;2022-12-10T05:33:16;0.30;99.90
27619;DHT22;15039;50.830;4.730;2022-12-10T05:35:42;0.40;99.90
27619;DHT22;15039;50.830;4.730;2022-12-10T05:38:08;0.30;99.90
27619;DHT22;15039;50.830;4.730;2022-12-10T05:40:36;0.30;99.90
27619;DHT22;15039;50.830;4.730;2022-12-10T05:43:02;0.30;99.90
27619;DHT22;15039;50.830;4.730;2022-12-10T05:45:28;0.40;99.90
27619;DHT22;15039;50.830;4.730;2022-12-10T05:47:53;0.30;99.90
27619;DHT22;15039;50.830;4.730;2022-12-10T05:50:19;0.30;99.90
27619;DHT22;15039;50.830;4.730;2022-12-10T05:52:45;0.30;99.90
27619;DHT22;15039;50.830;4.730;2022-12-10T05:55:10;0.30;99.90
27619;DHT22;15039;50.830;4.730;2022-12-10T05:57:36;0.30;99.90
27619;DHT22;15039;50.830;4.730;2022-12-10T06:00:04;0.50;99.90
27619;DHT22;15039;50.830;4.730;2022-12-10T06:02:32;0.30;99.90
27619;DHT22;15039;50.830;4.730;2022-12-10T06:04:58;0.30;99.90
27619;DHT22;15039;50.830;4.730;2022-12-10T06:07:24;0.20;99.90
27619;DHT22;15039;50.830;4.730;2022-12-10T06:09:50;0.20;99.90
27619;DHT22;15039;50.830;4.730;2022-12-10T06:12:16;0.20;99.90
27619;DHT22;15039;50.830;4.730;2022-12-10T06:14:41;0.10;99.90
27619;DHT22;15039;50.830;4.730;2022-12-10T06:17:07;0.00;99.90
27619;DHT22;15039;50.830;4.730;2022-12-10T06:19:33;0.00;99.90
27619;DHT22;15039;50.830;4.730;2022-12-10T06:21:58;0.00;99.90
27619;DHT22;15039;50.830;4.730;2022-12-10T06:24:24;0.00;99.90
27619;DHT22;15039;50.830;4.730;2022-12-10T06:26:50;0.10;99.90
27619;DHT22;15039;50.830;4.730;2022-12-10T06:29:16;0.10;99.90
27619;DHT22;15039;50.830;4.730;2022-12-10T06:31:42;0.20;99.90
27619;DHT22;15039;50.830;4.730;2022-12-10T06:34:07;0.10;99.90
27619;DHT22;15039;50.830;4.730;2022-12-10T06:36:33;0.10;99.90
27619;DHT22;15039;50.830;4.730;2022-12-10T06:38:59;0.10;99.90
27619;DHT22;15039;50.830;4.730;2022-12-10T06:41:24;0.00;99.90
27619;DHT22;15039;50.830;4.730;2022-12-10T06:43:50;0.10;99.90
27619;DHT22;15039;50.830;4.730;2022-12-10T06:46:18;0.20;99.90
27619;DHT22;15039;50.830;4.730;2022-12-10T06:48:44;0.30;99.90
27619;DHT22;15039;50.830;4.730;2022-12-10T06:51:11;0.40;99.90
27619;DHT22;15039;50.830;4.730;2022-12-10T06:53:38;0.20;99.90
27619;DHT22;15039;50.830;4.730;2022-12-10T06:56:05;0.20;99.90
27619;DHT22;15039;50.830;4.730;2022-12-10T06:58:33;0.10;99.90
27619;DHT22;15039;50.830;4.730;2022-12-10T07:01:08;0.00;99.90
27619;DHT22;15039;50.830;4.730;2022-12-10T07:03:34;0.00;99.90
27619;DHT22;15039;50.830;4.730;2022-12-10T07:06:00;0.00;99.90
27619;DHT22;15039;50.830;4.730;2022-12-10T07:08:26;0.00;99.90
27619;DHT22;15039;50.830;4.730;2022-12-10T07:10:52;-0.10;99.90
27619;DHT22;15039;50.830;4.730;2022-12-10T07:13:18;-0.10;99.90
27619;DHT22;15039;50.830;4.730;2022-12-10T07:15:43;0.10;99.90
27619;DHT22;15039;50.830;4.730;2022-12-10T07:18:09;0.10;99.90
27619;DHT22;15039;50.830;4.730;2022-12-10T07:20:35;0.20;99.90
27619;DHT22;15039;50.830;4.730;2022-12-10T07:23:00;0.20;99.90
27619;DHT22;15039;50.830;4.730;2022-12-10T07:25:26;0.10;99.90
27619;DHT22;15039;50.830;4.730;2022-12-10T07:27:51;0.10;99.90
27619;DHT22;15039;50.830;4.730;2022-12-10T07:30:17;0.20;99.90
27619;DHT22;15039;50.830;4.730;2022-12-10T07:32:43;0.30;99.90
27619;DHT22;15039;50.830;4.730;2022-12-10T07:35:08;0.30;99.90
27619;DHT22;15039;50.830;4.730;2022-12-10T07:37:34;0.30;99.90
27619;DHT22;15039;50.830;4.730;2022-12-10T07:40:00;0.30;99.90
27619;DHT22;15039;50.830;4.730;2022-12-10T07:42:25;0.40;99.90
27619;DHT22;15039;50.830;4.730;2022-12-10T07:44:51;0.40;99.90
27619;DHT22;15039;50.830;4.730;2022-12-10T07:47:16;0.40;99.90
27619;DHT22;15039;50.830;4.730;2022-12-10T07:49:42;0.40;99.90
27619;DHT22;15039;50.830;4.730;2022-12-10T07:52:08;0.30;99.90
27619;DHT22;15039;50.830;4.730;2022-12-10T07:54:34;0.30;99.90
27619;DHT22;15039;50.830;4.730;2022-12-10T07:57:00;0.40;99.90
27619;DHT22;15039;50.830;4.730;2022-12-10T07:59:25;0.40;99.90
27619;DHT22;15039;50.830;4.730;2022-12-10T08:01:52;0.50;99.90
27619;DHT22;15039;50.830;4.730;2022-12-10T08:04:17;0.50;99.90
27619;DHT22;15039;50.830;4.730;2022-12-10T08:06:43;0.50;99.90
27619;DHT22;15039;50.830;4.730;2022-12-10T08:09:09;0.60;99.90
27619;DHT22;15039;50.830;4.730;2022-12-10T08:11:35;0.60;99.90
27619;DHT22;15039;50.830;4.730;2022-12-10T08:14:01;0.50;99.90
27619;DHT22;15039;50.830;4.730;2022-12-10T08:16:28;0.60;99.90
27619;DHT22;15039;50.830;4.730;2022-12-10T08:18:56;0.60;99.90
27619;DHT22;15039;50.830;4.730;2022-12-10T08:21:23;0.50;99.90
27619;DHT22;15039;50.830;4.730;2022-12-10T08:23:49;0.50;99.90
27619;DHT22;15039;50.830;4.730;2022-12-10T08:26:17;0.60;99.90
27619;DHT22;15039;50.830;4.730;2022-12-10T08:28:43;0.50;99.90
27619;DHT22;15039;50.830;4.730;2022-12-10T08:31:10;0.50;99.90
27619;DHT22;15039;50.830;4.730;2022-12-10T08:33:37;0.30;99.90
27619;DHT22;15039;50.830;4.730;2022-12-10T08:36:05;0.40;99.90
27619;DHT22;15039;50.830;4.730;2022-12-10T08:38:31;0.40;99.90
27619;DHT22;15039;50.830;4.730;2022-12-10T08:40:57;0.50;99.90
27619;DHT22;15039;50.830;4.730;2022-12-10T08:43:23;0.50;99.90
27619;DHT22;15039;50.830;4.730;2022-12-10T08:45:48;0.50;99.90
27619;DHT22;15039;50.830;4.730;2022-12-10T08:48:14;0.60;99.90
27619;DHT22;15039;50.830;4.730;2022-12-10T08:50:40;0.60;99.90
27619;DHT22;15039;50.830;4.730;2022-12-10T08:53:06;0.60;99.90
27619;DHT22;15039;50.830;4.730;2022-12-10T08:55:32;0.60;99.90
27619;DHT22;15039;50.830;4.730;2022-12-10T08:57:58;0.50;99.90
27619;DHT22;15039;50.830;4.730;2022-12-10T09:00:25;0.50;99.90
27619;DHT22;15039;50.830;4.730;2022-12-10T09:02:50;0.50;99.90
27619;DHT22;15039;50.830;4.730;2022-12-10T09:05:16;0.50;99.90
27619;DHT22;15039;50.830;4.730;2022-12-10T09:07:44;0.50;99.90
27619;DHT22;15039;50.830;4.730;2022-12-10T09:10:11;0.40;99.90
27619;DHT22;15039;50.830;4.730;2022-12-10T09:12:37;0.40;99.90
27619;DHT22;15039;50.830;4.730;2022-12-10T09:15:05;0.40;99.90
27619;DHT22;15039;50.830;4.730;2022-12-10T09:17:31;0.50;99.90
27619;DHT22;15039;50.830;4.730;2022-12-10T09:19:56;0.50;99.90
27619;DHT22;15039;50.830;4.730;2022-12-10T09:22:22;0.60;99.90
27619;DHT22;15039;50.830;4.730;2022-12-10T09:24:48;0.70;99.90
27619;DHT22;15039;50.830;4.730;2022-12-10T09:27:13;0.80;99.90
27619;DHT22;15039;50.830;4.730;2022-12-10T09:29:39;0.80;99.90
27619;DHT22;15039;50.830;4.730;2022-12-10T09:32:05;0.80;99.90
27619;DHT22;15039;50.830;4.730;2022-12-10T09:34:30;0.90;99.90
27619;DHT22;15039;50.830;4.730;2022-12-10T09:36:56;0.90;99.90
27619;DHT22;15039;50.830;4.730;2022-12-10T09:39:21;0.90;99.90
27619;DHT22;15039;50.830;4.730;2022-12-10T09:44:35;0.70;99.90
27619;DHT22;15039;50.830;4.730;2022-12-10T09:47:06;0.80;99.90
27619;DHT22;15039;50.830;4.730;2022-12-10T09:49:42;0.90;99.90
27619;DHT22;15039;50.830;4.730;2022-12-10T09:52:18;0.90;99.90
27619;DHT22;15039;50.830;4.730;2022-12-10T10:00:32;1.20;99.90
27619;DHT22;15039;50.830;4.730;2022-12-10T10:02:59;1.20;99.90
27619;DHT22;15039;50.830;4.730;2022-12-10T10:05:38;1.20;99.90
27619;DHT22;15039;50.830;4.730;2022-12-10T10:08:07;1.20;99.90
27619;DHT22;15039;50.830;4.730;2022-12-10T10:10:39;1.30;99.90
27619;DHT22;15039;50.830;4.730;2022-12-10T10:15:36;1.40;99.90
27619;DHT22;15039;50.830;4.730;2022-12-10T10:18:09;1.50;99.90
27619;DHT22;15039;50.830;4.730;2022-12-10T10:20:36;1.60;99.90
27619;DHT22;15039;50.830;4.730;2022-12-10T10:23:02;1.50;99.90
27619;DHT22;15039;50.830;4.730;2022-12-10T10:25:28;1.50;99.90
27619;DHT22;15039;50.830;4.730;2022-12-10T10:27:54;1.40;99.90
27619;DHT22;15039;50.830;4.730;2022-12-10T10:30:22;1.30;99.90
27619;DHT22;15039;50.830;4.730;2022-12-10T10:32:56;1.40;99.90
27619;DHT22;15039;50.830;4.730;2022-12-10T10:35:25;1.10;99.90
27619;DHT22;15039;50.830;4.730;2022-12-10T10:37:57;1.10;99.90
27619;DHT22;15039;50.830;4.730;2022-12-10T10:42:53;1.30;99.90
27619;DHT22;15039;50.830;4.730;2022-12-10T10:45:50;1.40;99.90
27619;DHT22;15039;50.830;4.730;2022-12-10T10:48:19;1.40;99.90
27619;DHT22;15039;50.830;4.730;2022-12-10T10:50:47;1.60;99.90
27619;DHT22;15039;50.830;4.730;2022-12-10T10:56:16;1.60;99.90
27619;DHT22;15039;50.830;4.730;2022-12-10T10:59:04;1.70;99.90
27619;DHT22;15039;50.830;4.730;2022-12-10T11:01:50;1.70;99.90
27619;DHT22;15039;50.830;4.730;2022-12-10T11:06:50;1.70;99.90
27619;DHT22;15039;50.830;4.730;2022-12-10T11:09:21;1.60;99.90
27619;DHT22;15039;50.830;4.730;2022-12-10T11:11:52;1.60;99.90
27619;DHT22;15039;50.830;4.730;2022-12-10T11:14:31;1.80;99.90
27619;DHT22;15039;50.830;4.730;2022-12-10T11:17:02;1.80;99.90
27619;DHT22;15039;50.830;4.730;2022-12-10T11:19:30;1.80;99.90
27619;DHT22;15039;50.830;4.730;2022-12-10T11:22:16;1.80;99.90
27619;DHT22;15039;50.830;4.730;2022-12-10T11:24:42;2.00;99.90
27619;DHT22;15039;50.830;4.730;2022-12-10T11:27:13;1.90;99.90
27619;DHT22;15039;50.830;4.730;2022-12-10T11:38:02;2.10;99.90
27619;DHT22;15039;50.830;4.730;2022-12-10T11:43:39;2.00;99.90
27619;DHT22;15039;50.830;4.730;2022-12-10T11:49:06;2.00;99.90
27619;DHT22;15039;50.830;4.730;2022-12-10T12:10:49;2.40;99.90
27619;DHT22;15039;50.830;4.730;2022-12-10T12:13:42;2.40;99.90
27619;DHT22;15039;50.830;4.730;2022-12-10T12:16:14;2.30;99.90
27619;DHT22;15039;50.830;4.730;2022-12-10T12:18:48;2.20;99.90
27619;DHT22;15039;50.830;4.730;2022-12-10T12:21:17;2.20;99.90
27619;DHT22;15039;50.830;4.730;2022-12-10T12:23:54;2.20;99.90
27619;DHT22;15039;50.830;4.730;2022-12-10T12:26:23;2.20;99.90
27619;DHT22;15039;50.830;4.730;2022-12-10T12:29:13;2.10;99.90
27619;DHT22;15039;50.830;4.730;2022-12-10T12:31:45;2.10;99.90
27619;DHT22;15039;50.830;4.730;2022-12-10T12:36:41;2.10;99.90
27619;DHT22;15039;50.830;4.730;2022-12-10T12:39:23;2.20;99.90
27619;DHT22;15039;50.830;4.730;2022-12-10T12:44:59;2.30;99.90
27619;DHT22;15039;50.830;4.730;2022-12-10T12:52:56;2.30;99.90
27619;DHT22;15039;50.830;4.730;2022-12-10T12:55:37;2.30;99.90
27619;DHT22;15039;50.830;4.730;2022-12-10T13:03:42;2.20;99.90
27619;DHT22;15039;50.830;4.730;2022-12-10T13:08:46;2.20;99.90
27619;DHT22;15039;50.830;4.730;2022-12-10T13:11:46;2.20;99.90
27619;DHT22;15039;50.830;4.730;2022-12-10T13:14:18;2.30;99.90
27619;DHT22;15039;50.830;4.730;2022-12-10T13:17:08;2.40;99.90
27619;DHT22;15039;50.830;4.730;2022-12-10T13:19:34;2.30;99.90
27619;DHT22;15039;50.830;4.730;2022-12-10T13:22:42;2.30;99.90
27619;DHT22;15039;50.830;4.730;2022-12-10T13:25:05;2.40;99.90
27619;DHT22;15039;50.830;4.730;2022-12-10T13:27:33;2.40;99.90
27619;DHT22;15039;50.830;4.730;2022-12-10T13:30:25;2.30;99.90
27619;DHT22;15039;50.830;4.730;2022-12-10T13:33:00;2.20;99.90
27619;DHT22;15039;50.830;4.730;2022-12-10T13:35:30;2.10;99.90
27619;DHT22;15039;50.830;4.730;2022-12-10T13:38:23;2.10;99.90
27619;DHT22;15039;50.830;4.730;2022-12-10T13:41:02;2.10;99.90
27619;DHT22;15039;50.830;4.730;2022-12-10T13:43:55;2.10;99.90
27619;DHT22;15039;50.830;4.730;2022-12-10T13:46:59;2.20;99.90
27619;DHT22;15039;50.830;4.730;2022-12-10T13:49:30;2.30;99.90
27619;DHT22;15039;50.830;4.730;2022-12-10T13:52:04;2.20;99.90
27619;DHT22;15039;50.830;4.730;2022-12-10T14:00:18;2.20;99.90
27619;DHT22;15039;50.830;4.730;2022-12-10T14:08:35;2.20;99.90
27619;DHT22;15039;50.830;4.730;2022-12-10T14:11:05;2.20;99.90
27619;DHT22;15039;50.830;4.730;2022-12-10T14:13:47;2.20;99.90
27619;DHT22;15039;50.830;4.730;2022-12-10T14:16:15;2.10;99.90
27619;DHT22;15039;50.830;4.730;2022-12-10T14:18:55;2.00;99.90
27619;DHT22;15039;50.830;4.730;2022-12-10T14:21:21;2.10;99.90
27619;DHT22;15039;50.830;4.730;2022-12-10T14:23:50;2.20;99.90
27619;DHT22;15039;50.830;4.730;2022-12-10T14:26:22;2.20;99.90
27619;DHT22;15039;50.830;4.730;2022-12-10T14:29:00;2.20;99.90
27619;DHT22;15039;50.830;4.730;2022-12-10T14:31:34;2.20;99.90
27619;DHT22;15039;50.830;4.730;2022-12-10T14:34:04;2.20;99.90
27619;DHT22;15039;50.830;4.730;2022-12-10T14:36:57;2.20;99.90
27619;DHT22;15039;50.830;4.730;2022-12-10T14:39:28;2.30;99.90
27619;DHT22;15039;50.830;4.730;2022-12-10T14:42:00;2.10;99.90
27619;DHT22;15039;50.830;4.730;2022-12-10T14:44:27;2.20;99.90
27619;DHT22;15039;50.830;4.730;2022-12-10T14:47:16;2.20;99.90
27619;DHT22;15039;50.830;4.730;2022-12-10T14:49:44;2.30;99.90
27619;DHT22;15039;50.830;4.730;2022-12-10T14:52:24;2.30;99.90
27619;DHT22;15039;50.830;4.730;2022-12-10T14:54:51;2.30;99.90
27619;DHT22;15039;50.830;4.730;2022-12-10T14:57:34;2.40;99.90
27619;DHT22;15039;50.830;4.730;2022-12-10T15:00:12;2.40;99.90
27619;DHT22;15039;50.830;4.730;2022-12-10T15:02:45;2.40;99.90
27619;DHT22;15039;50.830;4.730;2022-12-10T15:05:20;2.40;99.90
27619;DHT22;15039;50.830;4.730;2022-12-10T15:07:55;2.40;99.90
27619;DHT22;15039;50.830;4.730;2022-12-10T15:10:39;2.50;99.90
27619;DHT22;15039;50.830;4.730;2022-12-10T15:13:07;2.40;99.90
27619;DHT22;15039;50.830;4.730;2022-12-10T15:15:38;2.20;99.90
27619;DHT22;15039;50.830;4.730;2022-12-10T15:28:41;2.00;99.90
27619;DHT22;15039;50.830;4.730;2022-12-10T15:39:16;2.10;99.90
27619;DHT22;15039;50.830;4.730;2022-12-10T15:44:32;2.10;99.90
27619;DHT22;15039;50.830;4.730;2022-12-10T15:47:08;2.20;99.90
27619;DHT22;15039;50.830;4.730;2022-12-10T15:49:35;2.20;99.90
27619;DHT22;15039;50.830;4.730;2022-12-10T15:52:01;2.10;99.90
27619;DHT22;15039;50.830;4.730;2022-12-10T15:54:33;2.00;99.90
27619;DHT22;15039;50.830;4.730;2022-12-10T15:56:59;2.00;99.90
27619;DHT22;15039;50.830;4.730;2022-12-10T15:59:25;2.00;99.90
27619;DHT22;15039;50.830;4.730;2022-12-10T16:01:50;2.00;99.90
27619;DHT22;15039;50.830;4.730;2022-12-10T16:04:16;1.90;99.90
27619;DHT22;15039;50.830;4.730;2022-12-10T16:06:42;1.90;99.90
27619;DHT22;15039;50.830;4.730;2022-12-10T16:09:09;1.90;99.90
27619;DHT22;15039;50.830;4.730;2022-12-10T16:11:34;1.90;99.90
27619;DHT22;15039;50.830;4.730;2022-12-10T16:14:00;1.90;99.90
27619;DHT22;15039;50.830;4.730;2022-12-10T16:16:27;1.90;99.90
27619;DHT22;15039;50.830;4.730;2022-12-10T16:18:53;2.00;99.90
27619;DHT22;15039;50.830;4.730;2022-12-10T16:21:19;2.00;99.90
27619;DHT22;15039;50.830;4.730;2022-12-10T16:23:44;1.90;99.90
27619;DHT22;15039;50.830;4.730;2022-12-10T16:26:21;1.90;99.90
27619;DHT22;15039;50.830;4.730;2022-12-10T16:28:47;1.90;99.90
27619;DHT22;15039;50.830;4.730;2022-12-10T16:31:19;1.90;99.90
27619;DHT22;15039;50.830;4.730;2022-12-10T16:33:46;1.80;99.90
27619;DHT22;15039;50.830;4.730;2022-12-10T16:36:13;1.70;99.90
27619;DHT22;15039;50.830;4.730;2022-12-10T16:38:39;1.80;99.90
27619;DHT22;15039;50.830;4.730;2022-12-10T16:41:21;1.80;99.90
27619;DHT22;15039;50.830;4.730;2022-12-10T16:43:47;1.80;99.90
27619;DHT22;15039;50.830;4.730;2022-12-10T16:46:12;1.80;99.90
27619;DHT22;15039;50.830;4.730;2022-12-10T16:48:38;1.80;99.90
27619;DHT22;15039;50.830;4.730;2022-12-10T16:51:12;1.80;99.90
27619;DHT22;15039;50.830;4.730;2022-12-10T16:53:38;1.80;99.90
27619;DHT22;15039;50.830;4.730;2022-12-10T16:56:06;1.80;99.90
27619;DHT22;15039;50.830;4.730;2022-12-10T16:58:32;1.80;99.90
27619;DHT22;15039;50.830;4.730;2022-12-10T17:00:58;1.90;99.90
27619;DHT22;15039;50.830;4.730;2022-12-10T17:03:25;1.80;99.90
27619;DHT22;15039;50.830;4.730;2022-12-10T17:06:00;1.80;99.90
27619;DHT22;15039;50.830;4.730;2022-12-10T17:08:28;1.80;99.90
27619;DHT22;15039;50.830;4.730;2022-12-10T17:10:54;1.80;99.90
27619;DHT22;15039;50.830;4.730;2022-12-10T17:13:40;1.80;99.90
27619;DHT22;15039;50.830;4.730;2022-12-10T17:16:08;1.70;99.90
27619;DHT22;15039;50.830;4.730;2022-12-10T17:18:35;1.60;99.90
27619;DHT22;15039;50.830;4.730;2022-12-10T17:21:00;1.70;99.90
27619;DHT22;15039;50.830;4.730;2022-12-10T17:23:26;1.60;99.90
27619;DHT22;15039;50.830;4.730;2022-12-10T17:25:52;1.70;99.90
27619;DHT22;15039;50.830;4.730;2022-12-10T17:28:20;1.70;99.90
27619;DHT22;15039;50.830;4.730;2022-12-10T17:30:46;1.60;99.90
27619;DHT22;15039;50.830;4.730;2022-12-10T17:33:17;1.60;99.90
27619;DHT22;15039;50.830;4.730;2022-12-10T17:35:45;1.50;99.90
27619;DHT22;15039;50.830;4.730;2022-12-10T17:38:16;1.60;99.90
27619;DHT22;15039;50.830;4.730;2022-12-10T17:40:42;1.60;99.90
27619;DHT22;15039;50.830;4.730;2022-12-10T17:43:08;1.70;99.90
27619;DHT22;15039;50.830;4.730;2022-12-10T17:45:34;1.70;99.90
27619;DHT22;15039;50.830;4.730;2022-12-10T17:48:00;1.60;99.90
27619;DHT22;15039;50.830;4.730;2022-12-10T17:50:27;1.70;99.90
27619;DHT22;15039;50.830;4.730;2022-12-10T17:52:56;1.70;99.90
27619;DHT22;15039;50.830;4.730;2022-12-10T17:55:24;1.80;99.90
27619;DHT22;15039;50.830;4.730;2022-12-10T17:57:50;1.80;99.90
27619;DHT22;15039;50.830;4.730;2022-12-10T18:00:18;1.70;99.90
27619;DHT22;15039;50.830;4.730;2022-12-10T18:02:45;1.70;99.90
27619;DHT22;15039;50.830;4.730;2022-12-10T18:05:10;1.70;99.90
27619;DHT22;15039;50.830;4.730;2022-12-10T18:07:36;1.60;99.90
27619;DHT22;15039;50.830;4.730;2022-12-10T18:10:04;1.70;99.90